KDYS

Dyess AFB Airport

Abilene, Texas, USA
METAR KDYS 220034Z AUTO 01009KT 7SM OVC007 M04/M05 A3032 RMK AO2 FZDZE02FZDZB05E19 CIG 005V007 SLP294 $
Observed Flight Rules
Feb-22 @ 00:34 UTC (4 hours ago) Instrument Flight Rules
Wind Visibility Clouds
10° at 9 knots 7 miles
  • Overcast at 700' AGL
Temperatures Readings
Current -4°C / 25°F
Dewpoint -5°C / 23°F
Humidity 93%
Altimeter 30.32" Hg
Pressure 1029.4 hPa
Elevation 545
METAR KDYS 220034Z AUTO 01009KT 7SM OVC007 M04/M05 A3032 RMK AO2 FZDZE02FZDZB05E19 CIG 005V007 SLP294 $
Observed Flight Rules
Feb-22 @ 00:34 UTC
(4 hours ago)
IFR
Wind Visibility
10° at 9 knots 7 miles
Clouds
  • Overcast at 700' AGL
Temperature Dewpoint
-4°C / 25°F -5°C / 23°F
Humidity Altimeter Pressure
93% 30.32" Hg 1029.4 hPa